sensor_id;sensor_type;location;lat;lon;timestamp;pressure;altitude;pressure_sealevel;temperature;humidity
21185;BME280;18176;49.502;11.754;2022-08-19T00:01:08;96290.25;;;20.15;100.00
21185;BME280;18176;49.502;11.754;2022-08-19T00:05:06;96331.75;;;20.89;100.00
21185;BME280;18176;49.502;11.754;2022-08-19T00:09:07;96317.44;;;20.80;100.00
21185;BME280;18176;49.502;11.754;2022-08-19T00:13:04;96334.09;;;20.82;100.00
21185;BME280;18176;49.502;11.754;2022-08-19T00:17:04;96323.38;;;20.60;100.00
21185;BME280;18176;49.502;11.754;2022-08-19T00:21:01;96321.41;;;20.52;100.00
21185;BME280;18176;49.502;11.754;2022-08-19T00:24:59;96302.56;;;20.52;100.00
21185;BME280;18176;49.502;11.754;2022-08-19T00:28:58;96322.63;;;20.46;100.00
21185;BME280;18176;49.502;11.754;2022-08-19T00:32:55;96307.97;;;20.29;100.00
21185;BME280;18176;49.502;11.754;2022-08-19T00:36:52;96296.31;;;20.20;100.00
21185;BME280;18176;49.502;11.754;2022-08-19T00:40:49;96317.88;;;20.43;100.00
21185;BME280;18176;49.502;11.754;2022-08-19T00:44:47;96339.25;;;20.70;100.00
21185;BME280;18176;49.502;11.754;2022-08-19T00:48:44;96353.56;;;20.79;100.00
21185;BME280;18176;49.502;11.754;2022-08-19T00:52:47;96356.41;;;20.74;100.00
21185;BME280;18176;49.502;11.754;2022-08-19T00:56:45;96363.53;;;20.78;100.00
21185;BME280;18176;49.502;11.754;2022-08-19T01:00:44;96357.34;;;20.78;100.00
21185;BME280;18176;49.502;11.754;2022-08-19T01:04:41;96359.28;;;20.86;100.00
21185;BME280;18176;49.502;11.754;2022-08-19T01:08:38;96347.31;;;20.70;100.00
21185;BME280;18176;49.502;11.754;2022-08-19T01:12:37;96359.38;;;20.72;100.00
21185;BME280;18176;49.502;11.754;2022-08-19T01:16:35;96328.56;;;20.87;100.00
21185;BME280;18176;49.502;11.754;2022-08-19T01:20:34;96336.91;;;20.77;100.00
21185;BME280;18176;49.502;11.754;2022-08-19T01:24:32;96381.63;;;20.86;100.00
21185;BME280;18176;49.502;11.754;2022-08-19T01:28:32;96362.75;;;20.78;100.00
21185;BME280;18176;49.502;11.754;2022-08-19T01:32:38;96363.28;;;20.88;100.00
21185;BME280;18176;49.502;11.754;2022-08-19T01:36:45;96367.97;;;21.05;100.00
21185;BME280;18176;49.502;11.754;2022-08-19T01:40:44;96364.69;;;20.86;100.00
21185;BME280;18176;49.502;11.754;2022-08-19T01:44:41;96322.41;;;20.56;100.00
21185;BME280;18176;49.502;11.754;2022-08-19T01:48:42;96368.50;;;20.85;100.00
21185;BME280;18176;49.502;11.754;2022-08-19T01:52:43;96346.00;;;20.89;100.00
21185;BME280;18176;49.502;11.754;2022-08-19T01:56:40;96373.47;;;21.22;100.00
21185;BME280;18176;49.502;11.754;2022-08-19T02:00:38;96386.81;;;21.27;100.00
21185;BME280;18176;49.502;11.754;2022-08-19T02:04:36;96344.38;;;20.80;100.00
21185;BME280;18176;49.502;11.754;2022-08-19T02:08:38;96375.75;;;21.07;100.00
21185;BME280;18176;49.502;11.754;2022-08-19T02:12:35;96376.91;;;21.14;100.00
21185;BME280;18176;49.502;11.754;2022-08-19T02:16:34;96358.81;;;21.06;100.00
21185;BME280;18176;49.502;11.754;2022-08-19T02:20:32;96383.69;;;21.12;100.00
21185;BME280;18176;49.502;11.754;2022-08-19T02:24:29;96407.19;;;20.67;100.00
21185;BME280;18176;49.502;11.754;2022-08-19T02:28:26;96402.78;;;20.71;100.00
21185;BME280;18176;49.502;11.754;2022-08-19T02:32:23;96441.44;;;20.97;100.00
21185;BME280;18176;49.502;11.754;2022-08-19T02:36:20;96429.19;;;20.91;100.00
21185;BME280;18176;49.502;11.754;2022-08-19T02:40:17;96440.59;;;21.10;100.00
21185;BME280;18176;49.502;11.754;2022-08-19T02:44:14;96436.47;;;20.90;100.00
21185;BME280;18176;49.502;11.754;2022-08-19T02:48:26;96416.00;;;20.81;100.00
21185;BME280;18176;49.502;11.754;2022-08-19T02:52:23;96416.34;;;20.88;100.00
21185;BME280;18176;49.502;11.754;2022-08-19T02:56:24;96409.72;;;20.94;100.00
21185;BME280;18176;49.502;11.754;2022-08-19T03:00:23;96385.97;;;20.96;100.00
21185;BME280;18176;49.502;11.754;2022-08-19T03:04:20;96391.97;;;20.93;100.00
21185;BME280;18176;49.502;11.754;2022-08-19T03:08:18;96382.19;;;20.97;100.00
21185;BME280;18176;49.502;11.754;2022-08-19T03:12:17;96391.44;;;20.82;100.00
21185;BME280;18176;49.502;11.754;2022-08-19T03:16:14;96385.16;;;20.95;100.00
21185;BME280;18176;49.502;11.754;2022-08-19T03:20:11;96367.31;;;20.77;100.00
21185;BME280;18176;49.502;11.754;2022-08-19T03:24:08;96350.09;;;20.78;100.00
21185;BME280;18176;49.502;11.754;2022-08-19T03:28:06;96375.59;;;20.81;100.00
21185;BME280;18176;49.502;11.754;2022-08-19T03:32:05;96373.06;;;20.84;100.00
21185;BME280;18176;49.502;11.754;2022-08-19T03:36:10;96379.25;;;20.85;100.00
21185;BME280;18176;49.502;11.754;2022-08-19T03:40:08;96348.97;;;20.79;100.00
21185;BME280;18176;49.502;11.754;2022-08-19T03:44:10;96354.19;;;20.76;100.00
21185;BME280;18176;49.502;11.754;2022-08-19T03:48:14;96365.91;;;20.80;100.00
21185;BME280;18176;49.502;11.754;2022-08-19T03:52:13;96287.78;;;20.41;100.00
21185;BME280;18176;49.502;11.754;2022-08-19T03:56:11;96362.94;;;20.59;100.00
21185;BME280;18176;49.502;11.754;2022-08-19T04:00:10;96350.66;;;20.67;100.00
21185;BME280;18176;49.502;11.754;2022-08-19T04:04:10;96339.19;;;20.61;100.00
21185;BME280;18176;49.502;11.754;2022-08-19T04:08:07;96386.19;;;20.77;100.00
21185;BME280;18176;49.502;11.754;2022-08-19T04:12:09;96400.81;;;20.85;100.00
21185;BME280;18176;49.502;11.754;2022-08-19T04:16:07;96430.19;;;20.73;100.00
21185;BME280;18176;49.502;11.754;2022-08-19T04:20:04;96445.53;;;20.72;100.00
21185;BME280;18176;49.502;11.754;2022-08-19T04:24:04;96455.63;;;20.89;100.00
21185;BME280;18176;49.502;11.754;2022-08-19T04:28:01;96458.59;;;20.79;100.00
21185;BME280;18176;49.502;11.754;2022-08-19T04:31:59;96469.75;;;20.72;100.00
21185;BME280;18176;49.502;11.754;2022-08-19T04:36:05;96441.91;;;20.55;100.00
21185;BME280;18176;49.502;11.754;2022-08-19T04:40:05;96470.44;;;20.78;100.00
21185;BME280;18176;49.502;11.754;2022-08-19T04:44:21;96436.09;;;20.39;100.00
21185;BME280;18176;49.502;11.754;2022-08-19T04:48:19;96467.75;;;20.56;100.00
21185;BME280;18176;49.502;11.754;2022-08-19T04:52:24;96471.31;;;20.65;100.00
21185;BME280;18176;49.502;11.754;2022-08-19T04:56:21;96494.19;;;20.76;100.00
21185;BME280;18176;49.502;11.754;2022-08-19T05:00:19;96497.38;;;20.78;100.00
21185;BME280;18176;49.502;11.754;2022-08-19T05:04:19;96498.34;;;20.82;100.00
21185;BME280;18176;49.502;11.754;2022-08-19T05:08:20;96485.56;;;20.87;100.00
21185;BME280;18176;49.502;11.754;2022-08-19T05:12:29;96499.88;;;21.10;100.00
21185;BME280;18176;49.502;11.754;2022-08-19T05:16:27;96467.56;;;21.19;100.00
21185;BME280;18176;49.502;11.754;2022-08-19T05:20:25;96479.47;;;21.48;100.00
21185;BME280;18176;49.502;11.754;2022-08-19T05:24:40;96469.16;;;21.50;100.00
21185;BME280;18176;49.502;11.754;2022-08-19T05:28:57;96473.31;;;21.48;100.00
21185;BME280;18176;49.502;11.754;2022-08-19T05:32:56;96489.38;;;21.61;100.00
21185;BME280;18176;49.502;11.754;2022-08-19T05:36:59;96495.63;;;21.79;100.00
21185;BME280;18176;49.502;11.754;2022-08-19T05:40:59;96504.59;;;21.97;100.00
21185;BME280;18176;49.502;11.754;2022-08-19T05:44:56;96498.47;;;22.22;100.00
21185;BME280;18176;49.502;11.754;2022-08-19T05:48:54;96499.28;;;22.31;97.19
21185;BME280;18176;49.502;11.754;2022-08-19T05:52:53;96493.41;;;22.12;98.29
21185;BME280;18176;49.502;11.754;2022-08-19T05:56:51;96494.47;;;21.72;97.27
21185;BME280;18176;49.502;11.754;2022-08-19T06:00:49;96525.88;;;21.67;98.75
21185;BME280;18176;49.502;11.754;2022-08-19T06:04:46;96494.91;;;21.56;98.45
21185;BME280;18176;49.502;11.754;2022-08-19T06:08:44;96513.47;;;21.89;99.03
21185;BME280;18176;49.502;11.754;2022-08-19T06:12:48;96489.91;;;22.20;94.76
21185;BME280;18176;49.502;11.754;2022-08-19T06:16:45;96494.16;;;22.04;94.20
21185;BME280;18176;49.502;11.754;2022-08-19T06:20:42;96500.53;;;22.08;93.94
21185;BME280;18176;49.502;11.754;2022-08-19T06:24:51;96491.66;;;22.16;96.07
21185;BME280;18176;49.502;11.754;2022-08-19T06:28:50;96469.31;;;22.41;96.61
21185;BME280;18176;49.502;11.754;2022-08-19T06:32:47;96497.63;;;23.21;93.77
21185;BME280;18176;49.502;11.754;2022-08-19T06:36:48;96488.06;;;23.32;91.74
21185;BME280;18176;49.502;11.754;2022-08-19T06:40:46;96490.28;;;23.30;88.31
21185;BME280;18176;49.502;11.754;2022-08-19T06:44:46;96485.53;;;23.10;90.21
21185;BME280;18176;49.502;11.754;2022-08-19T06:48:48;96489.63;;;23.33;89.02
21185;BME280;18176;49.502;11.754;2022-08-19T06:52:46;96510.91;;;23.60;86.39
21185;BME280;18176;49.502;11.754;2022-08-19T06:56:47;96519.69;;;23.57;86.74
21185;BME280;18176;49.502;11.754;2022-08-19T07:00:44;96515.53;;;23.51;86.95
21185;BME280;18176;49.502;11.754;2022-08-19T07:04:41;96531.00;;;23.42;87.58
21185;BME280;18176;49.502;11.754;2022-08-19T07:08:38;96518.94;;;23.14;86.61
21185;BME280;18176;49.502;11.754;2022-08-19T07:12:39;96536.41;;;23.08;88.45
21185;BME280;18176;49.502;11.754;2022-08-19T07:16:37;96500.81;;;22.97;89.63
21185;BME280;18176;49.502;11.754;2022-08-19T07:20:40;96539.41;;;23.23;89.16
21185;BME280;18176;49.502;11.754;2022-08-19T07:24:38;96537.50;;;23.49;87.13
21185;BME280;18176;49.502;11.754;2022-08-19T07:28:47;96553.50;;;23.80;86.61
21185;BME280;18176;49.502;11.754;2022-08-19T07:32:48;96532.19;;;23.70;85.68
21185;BME280;18176;49.502;11.754;2022-08-19T07:36:49;96511.69;;;23.60;84.56
21185;BME280;18176;49.502;11.754;2022-08-19T07:40:46;96537.94;;;23.60;85.97
21185;BME280;18176;49.502;11.754;2022-08-19T07:44:43;96499.59;;;23.66;84.15
21185;BME280;18176;49.502;11.754;2022-08-19T07:48:49;96521.38;;;23.70;84.32
21185;BME280;18176;49.502;11.754;2022-08-19T07:52:48;96516.47;;;23.63;84.60
21185;BME280;18176;49.502;11.754;2022-08-19T07:56:46;96499.81;;;23.53;84.86
21185;BME280;18176;49.502;11.754;2022-08-19T08:00:51;96499.81;;;23.44;85.85
21185;BME280;18176;49.502;11.754;2022-08-19T08:04:49;96510.00;;;23.47;85.25
21185;BME280;18176;49.502;11.754;2022-08-19T08:09:05;96520.78;;;23.56;85.53
21185;BME280;18176;49.502;11.754;2022-08-19T08:13:12;96505.19;;;23.61;82.61
21185;BME280;18176;49.502;11.754;2022-08-19T08:17:10;96535.06;;;23.65;84.32
21185;BME280;18176;49.502;11.754;2022-08-19T08:21:08;96523.13;;;23.74;84.04
21185;BME280;18176;49.502;11.754;2022-08-19T08:25:20;96523.34;;;23.99;81.80
21185;BME280;18176;49.502;11.754;2022-08-19T08:29:18;96534.84;;;24.33;79.70
21185;BME280;18176;49.502;11.754;2022-08-19T08:33:20;96524.13;;;24.37;78.18
21185;BME280;18176;49.502;11.754;2022-08-19T08:37:30;96534.34;;;24.61;77.33
21185;BME280;18176;49.502;11.754;2022-08-19T08:41:44;96530.69;;;24.86;77.21
21185;BME280;18176;49.502;11.754;2022-08-19T08:50:13;96525.66;;;24.76;76.43
21185;BME280;18176;49.502;11.754;2022-08-19T08:54:18;96495.94;;;24.09;79.26
21185;BME280;18176;49.502;11.754;2022-08-19T08:58:58;96522.78;;;24.22;79.87
21185;BME280;18176;49.502;11.754;2022-08-19T09:02:58;96528.06;;;24.19;79.78
21185;BME280;18176;49.502;11.754;2022-08-19T09:12:28;96524.44;;;24.65;77.31
21185;BME280;18176;49.502;11.754;2022-08-19T09:16:27;96506.50;;;24.81;76.50
21185;BME280;18176;49.502;11.754;2022-08-19T09:20:25;96494.59;;;24.94;77.98
21185;BME280;18176;49.502;11.754;2022-08-19T09:24:22;96508.06;;;25.35;75.30
21185;BME280;18176;49.502;11.754;2022-08-19T09:28:26;96487.16;;;25.36;75.05
21185;BME280;18176;49.502;11.754;2022-08-19T09:32:28;96486.03;;;25.82;72.52
21185;BME280;18176;49.502;11.754;2022-08-19T09:36:27;96511.06;;;26.60;70.44
21185;BME280;18176;49.502;11.754;2022-08-19T09:40:31;96504.53;;;27.00;68.84
21185;BME280;18176;49.502;11.754;2022-08-19T09:44:33;96483.97;;;27.43;66.04
21185;BME280;18176;49.502;11.754;2022-08-19T09:48:32;96498.41;;;27.74;63.73
21185;BME280;18176;49.502;11.754;2022-08-19T09:52:29;96488.59;;;27.14;64.76
21185;BME280;18176;49.502;11.754;2022-08-19T09:56:29;96516.28;;;26.53;65.94
21185;BME280;18176;49.502;11.754;2022-08-19T10:00:27;96529.75;;;26.01;68.36
21185;BME280;18176;49.502;11.754;2022-08-19T10:04:24;96528.03;;;25.19;70.54
21185;BME280;18176;49.502;11.754;2022-08-19T10:08:41;96524.84;;;24.96;72.12
21185;BME280;18176;49.502;11.754;2022-08-19T10:12:46;96520.66;;;24.86;73.86
21185;BME280;18176;49.502;11.754;2022-08-19T10:16:44;96535.03;;;25.20;73.59
21185;BME280;18176;49.502;11.754;2022-08-19T10:20:41;96523.19;;;26.14;70.12
21185;BME280;18176;49.502;11.754;2022-08-19T10:24:39;96541.91;;;27.03;65.47
21185;BME280;18176;49.502;11.754;2022-08-19T10:28:37;96547.56;;;27.10;63.75
21185;BME280;18176;49.502;11.754;2022-08-19T10:32:34;96539.91;;;26.88;64.33
21185;BME280;18176;49.502;11.754;2022-08-19T10:36:36;96547.56;;;27.10;65.05
21185;BME280;18176;49.502;11.754;2022-08-19T10:40:51;96538.88;;;27.33;63.14
21185;BME280;18176;49.502;11.754;2022-08-19T10:44:50;96527.38;;;27.11;64.29
21185;BME280;18176;49.502;11.754;2022-08-19T10:48:48;96532.44;;;26.73;65.69
21185;BME280;18176;49.502;11.754;2022-08-19T10:52:50;96550.88;;;25.95;67.93
21185;BME280;18176;49.502;11.754;2022-08-19T10:56:50;96538.44;;;25.49;70.03
21185;BME280;18176;49.502;11.754;2022-08-19T11:00:57;96547.22;;;24.93;73.06
21185;BME280;18176;49.502;11.754;2022-08-19T11:04:55;96540.78;;;24.48;75.11
21185;BME280;18176;49.502;11.754;2022-08-19T11:08:54;96521.09;;;24.38;75.86
21185;BME280;18176;49.502;11.754;2022-08-19T11:12:51;96537.63;;;24.46;76.22
21185;BME280;18176;49.502;11.754;2022-08-19T11:16:52;96520.44;;;24.41;77.04
21185;BME280;18176;49.502;11.754;2022-08-19T11:20:52;96527.84;;;24.53;77.22
21185;BME280;18176;49.502;11.754;2022-08-19T11:24:49;96511.34;;;24.67;77.28
21185;BME280;18176;49.502;11.754;2022-08-19T11:28:47;96534.31;;;24.90;77.42
21185;BME280;18176;49.502;11.754;2022-08-19T11:32:44;96515.56;;;24.56;79.57
21185;BME280;18176;49.502;11.754;2022-08-19T11:36:49;96526.38;;;24.85;77.62
21185;BME280;18176;49.502;11.754;2022-08-19T11:41:14;96520.03;;;24.81;76.39
21185;BME280;18176;49.502;11.754;2022-08-19T11:45:16;96413.19;;;24.28;76.15
21185;BME280;18176;49.502;11.754;2022-08-19T11:49:20;96466.81;;;24.56;75.02
21185;BME280;18176;49.502;11.754;2022-08-19T11:53:19;96545.53;;;24.80;75.57
21185;BME280;18176;49.502;11.754;2022-08-19T11:57:17;96531.34;;;24.83;75.91
21185;BME280;18176;49.502;11.754;2022-08-19T12:01:17;96521.41;;;25.07;74.44
21185;BME280;18176;49.502;11.754;2022-08-19T12:05:15;96532.97;;;24.96;79.35
21185;BME280;18176;49.502;11.754;2022-08-19T12:09:12;96527.69;;;23.91;84.32
21185;BME280;18176;49.502;11.754;2022-08-19T12:13:12;96508.13;;;22.96;92.39
21185;BME280;18176;49.502;11.754;2022-08-19T12:17:15;96513.47;;;22.45;97.66
21185;BME280;18176;49.502;11.754;2022-08-19T12:21:19;96503.25;;;22.25;99.40
21185;BME280;18176;49.502;11.754;2022-08-19T12:25:20;96524.97;;;22.11;100.00
21185;BME280;18176;49.502;11.754;2022-08-19T12:29:20;96528.38;;;21.86;100.00
21185;BME280;18176;49.502;11.754;2022-08-19T12:33:20;96497.78;;;21.29;100.00
21185;BME280;18176;49.502;11.754;2022-08-19T12:37:21;96501.47;;;21.42;100.00
21185;BME280;18176;49.502;11.754;2022-08-19T12:41:21;96515.75;;;21.73;100.00
21185;BME280;18176;49.502;11.754;2022-08-19T12:45:19;96509.81;;;21.85;100.00
21185;BME280;18176;49.502;11.754;2022-08-19T12:49:16;96516.22;;;22.06;100.00
21185;BME280;18176;49.502;11.754;2022-08-19T12:53:34;96498.00;;;22.20;100.00
21185;BME280;18176;49.502;11.754;2022-08-19T12:57:35;96505.09;;;21.99;100.00
21185;BME280;18176;49.502;11.754;2022-08-19T13:01:32;96478.94;;;21.68;100.00
21185;BME280;18176;49.502;11.754;2022-08-19T13:05:32;96505.19;;;21.85;100.00
21185;BME280;18176;49.502;11.754;2022-08-19T13:09:33;96518.28;;;22.00;100.00
21185;BME280;18176;49.502;11.754;2022-08-19T13:13:30;96503.16;;;21.91;100.00
21185;BME280;18176;49.502;11.754;2022-08-19T13:17:27;96535.66;;;22.25;100.00
21185;BME280;18176;49.502;11.754;2022-08-19T13:21:26;96528.97;;;22.14;100.00
21185;BME280;18176;49.502;11.754;2022-08-19T13:25:26;96522.97;;;22.34;100.00
21185;BME280;18176;49.502;11.754;2022-08-19T13:29:24;96526.88;;;22.67;100.00
21185;BME280;18176;49.502;11.754;2022-08-19T13:33:40;96529.09;;;22.82;98.56
21185;BME280;18176;49.502;11.754;2022-08-19T13:37:39;96349.50;;;21.68;98.64
21185;BME280;18176;49.502;11.754;2022-08-19T13:41:45;96530.53;;;22.97;94.46
21185;BME280;18176;49.502;11.754;2022-08-19T13:45:44;96536.44;;;22.90;93.74
21185;BME280;18176;49.502;11.754;2022-08-19T13:49:42;96529.44;;;23.07;94.48
21185;BME280;18176;49.502;11.754;2022-08-19T13:53:39;96521.16;;;22.94;95.60
21185;BME280;18176;49.502;11.754;2022-08-19T13:57:43;96533.72;;;22.99;95.26
21185;BME280;18176;49.502;11.754;2022-08-19T14:01:41;96523.06;;;22.85;95.73
21185;BME280;18176;49.502;11.754;2022-08-19T14:05:38;96536.69;;;22.63;96.83
21185;BME280;18176;49.502;11.754;2022-08-19T14:09:35;96529.00;;;22.31;98.89
21185;BME280;18176;49.502;11.754;2022-08-19T14:13:33;96547.13;;;22.39;99.85
21185;BME280;18176;49.502;11.754;2022-08-19T14:17:31;96555.56;;;22.55;98.60
21185;BME280;18176;49.502;11.754;2022-08-19T14:21:28;96515.38;;;22.53;97.46
21185;BME280;18176;49.502;11.754;2022-08-19T14:25:29;96516.28;;;22.23;99.54
21185;BME280;18176;49.502;11.754;2022-08-19T14:29:26;96519.59;;;22.11;100.00
21185;BME280;18176;49.502;11.754;2022-08-19T14:33:25;96507.31;;;21.97;100.00
21185;BME280;18176;49.502;11.754;2022-08-19T14:37:24;96495.41;;;21.98;100.00
21185;BME280;18176;49.502;11.754;2022-08-19T14:41:24;96513.97;;;21.91;100.00
21185;BME280;18176;49.502;11.754;2022-08-19T14:45:21;96506.53;;;21.65;100.00
21185;BME280;18176;49.502;11.754;2022-08-19T14:49:18;96517.06;;;21.76;100.00
21185;BME280;18176;49.502;11.754;2022-08-19T14:53:16;96495.13;;;21.68;100.00
21185;BME280;18176;49.502;11.754;2022-08-19T14:57:14;96513.34;;;21.94;100.00
21185;BME280;18176;49.502;11.754;2022-08-19T15:01:12;96504.59;;;21.88;100.00
21185;BME280;18176;49.502;11.754;2022-08-19T15:05:10;96515.56;;;21.92;100.00
21185;BME280;18176;49.502;11.754;2022-08-19T15:09:09;96506.69;;;21.69;100.00
21185;BME280;18176;49.502;11.754;2022-08-19T15:13:06;96525.69;;;21.86;100.00
21185;BME280;18176;49.502;11.754;2022-08-19T15:17:04;96534.97;;;21.49;100.00
21185;BME280;18176;49.502;11.754;2022-08-19T15:21:03;96506.81;;;21.33;100.00
21185;BME280;18176;49.502;11.754;2022-08-19T15:25:00;96499.75;;;21.15;100.00
21185;BME280;18176;49.502;11.754;2022-08-19T15:28:59;96534.09;;;21.32;100.00
21185;BME280;18176;49.502;11.754;2022-08-19T15:32:57;96511.00;;;21.17;100.00
21185;BME280;18176;49.502;11.754;2022-08-19T15:36:54;96519.09;;;21.17;100.00
21185;BME280;18176;49.502;11.754;2022-08-19T15:40:52;96528.75;;;21.18;100.00
21185;BME280;18176;49.502;11.754;2022-08-19T15:44:49;96539.84;;;21.17;100.00
21185;BME280;18176;49.502;11.754;2022-08-19T15:48:51;96539.78;;;21.08;100.00
21185;BME280;18176;49.502;11.754;2022-08-19T15:53:00;96536.91;;;21.05;100.00
21185;BME280;18176;49.502;11.754;2022-08-19T15:56:57;96534.47;;;21.03;100.00
21185;BME280;18176;49.502;11.754;2022-08-19T16:01:13;96543.38;;;21.04;100.00
21185;BME280;18176;49.502;11.754;2022-08-19T16:05:36;96523.44;;;20.91;100.00
21185;BME280;18176;49.502;11.754;2022-08-19T16:09:52;96525.34;;;20.90;100.00
21185;BME280;18176;49.502;11.754;2022-08-19T16:13:51;96531.66;;;20.86;100.00
21185;BME280;18176;49.502;11.754;2022-08-19T16:17:48;96540.94;;;20.80;100.00
21185;BME280;18176;49.502;11.754;2022-08-19T16:21:55;96560.78;;;20.84;100.00
21185;BME280;18176;49.502;11.754;2022-08-19T16:25:52;96553.63;;;20.79;100.00
21185;BME280;18176;49.502;11.754;2022-08-19T16:29:50;96554.34;;;20.71;100.00
21185;BME280;18176;49.502;11.754;2022-08-19T16:33:48;96525.38;;;20.55;100.00
21185;BME280;18176;49.502;11.754;2022-08-19T16:37:45;96532.75;;;20.36;100.00
21185;BME280;18176;49.502;11.754;2022-08-19T16:41:44;96564.53;;;20.47;100.00
21185;BME280;18176;49.502;11.754;2022-08-19T16:45:41;96546.13;;;20.41;100.00
21185;BME280;18176;49.502;11.754;2022-08-19T16:49:39;96554.41;;;20.31;100.00
21185;BME280;18176;49.502;11.754;2022-08-19T16:53:50;96570.66;;;20.25;100.00
21185;BME280;18176;49.502;11.754;2022-08-19T16:57:50;96567.53;;;20.18;100.00
21185;BME280;18176;49.502;11.754;2022-08-19T17:01:47;96583.50;;;20.28;100.00
21185;BME280;18176;49.502;11.754;2022-08-19T17:05:48;96584.59;;;20.27;100.00
21185;BME280;18176;49.502;11.754;2022-08-19T17:09:45;96574.22;;;20.21;100.00
21185;BME280;18176;49.502;11.754;2022-08-19T17:13:48;96589.28;;;20.22;100.00
21185;BME280;18176;49.502;11.754;2022-08-19T17:17:46;96580.88;;;20.10;100.00
21185;BME280;18176;49.502;11.754;2022-08-19T17:21:43;96561.44;;;19.99;100.00
21185;BME280;18176;49.502;11.754;2022-08-19T17:25:41;96561.63;;;19.89;100.00
21185;BME280;18176;49.502;11.754;2022-08-19T17:29:38;96585.56;;;20.04;100.00
21185;BME280;18176;49.502;11.754;2022-08-19T17:33:40;96593.94;;;20.16;100.00
21185;BME280;18176;49.502;11.754;2022-08-19T17:37:37;96576.50;;;20.00;100.00
21185;BME280;18176;49.502;11.754;2022-08-19T17:41:35;96587.34;;;19.95;100.00
21185;BME280;18176;49.502;11.754;2022-08-19T17:45:32;96589.63;;;19.88;100.00
21185;BME280;18176;49.502;11.754;2022-08-19T17:49:30;96595.59;;;19.85;100.00
21185;BME280;18176;49.502;11.754;2022-08-19T17:53:29;96598.59;;;19.84;100.00
21185;BME280;18176;49.502;11.754;2022-08-19T17:57:26;96605.06;;;19.96;100.00
21185;BME280;18176;49.502;11.754;2022-08-19T18:01:23;96604.47;;;19.86;100.00
21185;BME280;18176;49.502;11.754;2022-08-19T18:05:25;96598.38;;;19.80;100.00
21185;BME280;18176;49.502;11.754;2022-08-19T18:09:27;96621.81;;;19.93;100.00
21185;BME280;18176;49.502;11.754;2022-08-19T18:13:38;96619.13;;;19.93;100.00
21185;BME280;18176;49.502;11.754;2022-08-19T18:17:36;96631.97;;;19.96;100.00
21185;BME280;18176;49.502;11.754;2022-08-19T18:21:34;96623.41;;;19.94;100.00
21185;BME280;18176;49.502;11.754;2022-08-19T18:25:31;96619.41;;;19.92;100.00
21185;BME280;18176;49.502;11.754;2022-08-19T18:29:28;96637.66;;;19.95;100.00
21185;BME280;18176;49.502;11.754;2022-08-19T18:33:29;96654.09;;;19.93;100.00
21185;BME280;18176;49.502;11.754;2022-08-19T18:37:26;96627.13;;;19.66;100.00
21185;BME280;18176;49.502;11.754;2022-08-19T18:41:23;96645.84;;;19.71;100.00
21185;BME280;18176;49.502;11.754;2022-08-19T18:45:41;96655.53;;;19.72;100.00
21185;BME280;18176;49.502;11.754;2022-08-19T18:49:57;96661.97;;;19.71;100.00
21185;BME280;18176;49.502;11.754;2022-08-19T18:53:59;96659.97;;;19.63;100.00
21185;BME280;18176;49.502;11.754;2022-08-19T18:57:57;96641.19;;;19.44;100.00
21185;BME280;18176;49.502;11.754;2022-08-19T19:01:57;96671.47;;;19.50;100.00
21185;BME280;18176;49.502;11.754;2022-08-19T19:05:55;96673.81;;;19.38;100.00
21185;BME280;18176;49.502;11.754;2022-08-19T19:09:54;96652.94;;;19.48;100.00
21185;BME280;18176;49.502;11.754;2022-08-19T19:13:52;96664.91;;;19.56;100.00
21185;BME280;18176;49.502;11.754;2022-08-19T19:17:49;96672.91;;;19.61;100.00
21185;BME280;18176;49.502;11.754;2022-08-19T19:21:47;96684.63;;;19.51;100.00
21185;BME280;18176;49.502;11.754;2022-08-19T19:25:45;96683.19;;;19.40;100.00
21185;BME280;18176;49.502;11.754;2022-08-19T19:29:49;96691.50;;;19.39;100.00
21185;BME280;18176;49.502;11.754;2022-08-19T19:33:49;96694.69;;;19.41;100.00
21185;BME280;18176;49.502;11.754;2022-08-19T19:37:46;96661.06;;;19.25;100.00
21185;BME280;18176;49.502;11.754;2022-08-19T19:41:48;96672.09;;;19.23;100.00
21185;BME280;18176;49.502;11.754;2022-08-19T19:45:46;96688.00;;;19.20;100.00
21185;BME280;18176;49.502;11.754;2022-08-19T19:49:47;96710.06;;;19.17;100.00
21185;BME280;18176;49.502;11.754;2022-08-19T19:54:10;96717.75;;;19.05;100.00
21185;BME280;18176;49.502;11.754;2022-08-19T19:58:09;96712.25;;;19.15;100.00
21185;BME280;18176;49.502;11.754;2022-08-19T20:02:06;96716.44;;;19.21;100.00
21185;BME280;18176;49.502;11.754;2022-08-19T20:06:07;96721.88;;;19.16;100.00
21185;BME280;18176;49.502;11.754;2022-08-19T20:10:04;96724.56;;;19.16;100.00
21185;BME280;18176;49.502;11.754;2022-08-19T20:14:10;96726.63;;;19.24;100.00
21185;BME280;18176;49.502;11.754;2022-08-19T20:18:10;96740.06;;;19.24;100.00
21185;BME280;18176;49.502;11.754;2022-08-19T20:22:09;96739.63;;;19.17;100.00
21185;BME280;18176;49.502;11.754;2022-08-19T20:26:06;96738.44;;;19.23;100.00
21185;BME280;18176;49.502;11.754;2022-08-19T20:30:23;96718.34;;;19.02;100.00
21185;BME280;18176;49.502;11.754;2022-08-19T20:34:21;96727.03;;;18.93;100.00
21185;BME280;18176;49.502;11.754;2022-08-19T20:38:18;96731.81;;;18.97;100.00
21185;BME280;18176;49.502;11.754;2022-08-19T20:42:16;96739.44;;;18.89;100.00
21185;BME280;18176;49.502;11.754;2022-08-19T20:46:14;96717.50;;;18.82;100.00
21185;BME280;18176;49.502;11.754;2022-08-19T20:50:11;96724.69;;;18.87;100.00
21185;BME280;18176;49.502;11.754;2022-08-19T20:54:08;96733.03;;;18.85;100.00